Nearby METAR Reports


Data Updates Approximately Every Four Hours

METAR is the international standard code format for hourly surface weather observations which is analogous to the SA coding currently used in the US. The acronym roughly translates from French as Aviation Routine Weather Report. SPECI is merely the code name given to METAR formatted products which are issued on a special non-routine basis as dictated by changing meteorological conditions. The SPECI acronym roughly translates as Aviation Selected Special Weather Report.

KSLH - Cheboygan, Michigan, USA
Distance from station: W 9mi, 14km
Updated: 08/16/2018 3:15pm
Clear
Clear
 Wind from NE
Wind: NE 13 mph , 20 km/h, Gust: 17 mph , 28 km/h
Temperature: 79°F , 26°C
Dew Point: 63°F , 17°C
Humidity: 58%
Barometer: 29.98 inHg , 1015.2 hPa
Clouds: Clear
Visibility: 10 miles , 16 km
2018/08/16 19:15 KSLH 161915Z AUTO 05011G15KT 10SM CLR 26/17 A2998 RMK AO2 T02660170
KMCD - Mackinac Island, Michigan, USA
Distance from station: NW 19mi, 31km
Updated: 08/16/2018 3:16pm
Clear
Clear
 Wind from E
Wind: E 9 mph , 15 km/h
Temperature: 77°F , 25°C
Dew Point: 54°F , 12°C
Humidity: 44%
Barometer: 30.00 inHg , 1015.9 hPa
Clouds: Clear
Visibility: 10 miles , 16 km
2018/08/16 19:16 KMCD 161916Z AUTO 09008KT 10SM CLR 25/12 A3000 RMK AO2 T02470120
 
KPLN - Pellston, Michigan, USA
Distance from station: WSW 24mi, 38km
Updated: 08/16/2018 2:54pm
Clear
Clear
 Wind from ENE
Wind: ENE 10 mph , 17 km/h
Temperature: 86°F , 30°C
Heat Index: 87°F , 31°C
Dew Point: 63°F , 17°C
Humidity: 46%
Barometer: 29.98 inHg , 1015.2 hPa
Clouds: Clear
Visibility: 10 miles , 16 km
2018/08/16 18:54 KPLN 161854Z AUTO 07009KT 10SM CLR 30/17 A2998 RMK AO2 SLP150 T03000167
KPZQ - Rogers City, Michigan, USA
Distance from station: SE 31mi, 50km
Updated: 08/16/2018 3:15pm
Clear
Clear
 Wind from E
Wind: E 9 mph , 15 km/h
Temperature: 79°F , 26°C
Dew Point: 66°F , 19°C
Humidity: 65%
Barometer: 30.01 inHg , 1016.3 hPa
Clouds: Clear
Visibility: 7 miles , 11 km
2018/08/16 19:15 KPZQ 161915Z AUTO 08008KT 7SM CLR 26/19 A3001 RMK AO2 T02600188
 
KMGN - Harbor Springs, Michigan, USA
Distance from station: WSW 32mi, 52km
Updated: 08/16/2018 3:15pm
Partly cloudy
Partly cloudy
 Wind from E
Wind: E 8 mph , 13 km/h
Temperature: 86°F , 30°C
Heat Index: 86°F , 30°C
Dew Point: 61°F , 16°C
Humidity: 43%
Barometer: 29.96 inHg , 1014.6 hPa
Clouds: Partly cloudy
Visibility: 10 miles , 16 km
Cloud details: Partly cloudy 5000 ft
2018/08/16 19:15 KMGN 161915Z AUTO 09007KT 10SM SCT050 30/16 A2996 RMK AO2 T03050163
KDRM - Drummond Is, Michigan, USA
Distance from station: NE 36mi, 59km
Updated: 08/16/2018 3:15pm
Clear
Clear
 Wind from SSE
Wind: SSE 3 mph , 6 km/h
Temperature: 81°F , 27°C
Heat Index: 81°F , 27°C
Dew Point: 59°F , 15°C
Humidity: 48%
Barometer: 30.00 inHg , 1015.9 hPa
Clouds: Clear
Visibility: 10 miles , 16 km
2018/08/16 19:15 KDRM 161915Z AUTO 15003KT 10SM CLR 27/15 A3000 RMK AO2 T02710147
 
KCIU - Chippewa Intl, Michigan, USA
Distance from station: N 41mi, 66km
Updated: 08/16/2018 2:56pm
Clear
Clear
 Wind from SE
Wind: SE 9 mph , 15 km/h
Temperature: 82°F , 28°C
Heat Index: 84°F , 29°C
Dew Point: 64°F , 18°C
Humidity: 55%
Barometer: 30.00 inHg , 1015.9 hPa
Clouds: Clear
Visibility: 10 miles , 16 km
2018/08/16 18:56 KCIU 161856Z AUTO 14008KT 10SM CLR 28/18 A3000 RMK AO2 SLP175 T02830178
KGLR - Gaylord, Michigan, USA
Distance from station: SSW 48mi, 77km
Updated: 08/16/2018 2:53pm
Partly cloudy
Partly cloudy
 Wind from varies
Wind: varies 6 mph , 9 km/h
Temperature: 84°F , 29°C
Heat Index: 85°F , 29°C
Dew Point: 63°F , 17°C
Humidity: 48%
Barometer: 30.00 inHg , 1015.9 hPa
Clouds: Partly cloudy
Visibility: 10 miles , 16 km
Cloud details: Partly cloudy 8000 ft
2018/08/16 18:53 KGLR 161853Z AUTO VRB05KT 10SM SCT080 29/17 A3000 RMK AO2 SLP150 T02940167
 
KCVX - Charlevoix, Michigan, USA
Distance from station: WSW 52mi, 83km
Updated: 08/16/2018 3:15pm
Clear
Clear
 Wind from N
Wind: N 10 mph , 17 km/h
Temperature: 81°F , 27°C
Heat Index: 83°F , 28°C
Dew Point: 64°F , 18°C
Humidity: 58%
Barometer: 30.00 inHg , 1015.9 hPa
Clouds: Clear
Visibility: 10 miles , 16 km
2018/08/16 19:15 KCVX 161915Z AUTO 35009KT 10SM CLR 27/18 A3000 RMK AO2 T02690180
KANJ - Sault Ste Marie, Michigan, USA
Distance from station: N 56mi, 89km
Updated: 08/16/2018 2:55pm
Clear
Clear
 Wind from E
Wind: E 5 mph , 7 km/h
Temperature: 84°F , 29°C
Heat Index: 85°F , 29°C
Dew Point: 63°F , 17°C
Humidity: 48%
Barometer: 29.99 inHg , 1015.6 hPa
Clouds: Clear
Visibility: 10 miles , 16 km
2018/08/16 18:55 KANJ 161855Z AUTO 08004KT 10SM CLR 29/17 A2999 RMK AO2 SLP151 T02890172
 
KAPN - Alpena, Michigan, USA
Distance from station: SE 56mi, 89km
Updated: 08/16/2018 2:54pm
Clear
Clear
 Wind from ESE
Wind: ESE 10 mph , 17 km/h
Temperature: 82°F , 28°C
Heat Index: 86°F , 30°C
Dew Point: 70°F , 21°C
Humidity: 66%
Barometer: 30.01 inHg , 1016.3 hPa
Clouds: Clear
Visibility: 10 miles , 16 km
2018/08/16 18:54 KAPN 161854Z AUTO 12009KT 10SM CLR 28/21 A3001 RMK AO2 SLP159 T02830206
CYAM - Sault Ste Marie, Ontario, Canada
Distance from station: N 56mi, 90km
Updated: 08/16/2018 3:00pm
Partly cloudy
Partly cloudy
 Wind from S
Wind: S 5 mph , 7 km/h
Temperature: 82°F , 28°C
Heat Index: 84°F , 29°C
Dew Point: 64°F , 18°C
Humidity: 55%
Barometer: 29.99 inHg , 1015.6 hPa
Clouds: Partly cloudy
Visibility: 15 miles , 24 km
Cloud details: Few Clouds 4100 ft
Few Clouds 7000 ft
Few Clouds 19000 ft
Partly cloudy 23000 ft
2018/08/16 19:00 CYAM 161900Z 17004KT 100V230 15SM FEW041 FEW070 FEW190 SCT230 28/18 A2999 RMK CU1AC1AS1CI2 AC TR CONTRAILS SLP156 DENSITY ALT 2300FT
 
KSJX - Beaver Island, Michigan, USA
Distance from station: W 60mi, 96km
Updated: 08/16/2018 3:15pm
Clear
Clear
 Wind from E
Wind: E 7 mph , 11 km/h
Temperature: 79°F , 26°C
Dew Point: 61°F , 16°C
Humidity: 54%
Barometer: 29.99 inHg , 1015.6 hPa
Clouds: Clear
Visibility: 10 miles , 16 km
2018/08/16 19:15 KSJX 161915Z AUTO 08006KT 10SM CLR 26/16 A2999 RMK AO2 T02600161
KACB - Bellaire, Michigan, USA
Distance from station: SW 63mi, 102km
Updated: 08/16/2018 3:15pm
Clear
Clear
 Wind from NW
Wind: NW 5 mph , 7 km/h
Temperature: 88°F , 31°C
Heat Index: 89°F , 32°C
Dew Point: 63°F , 17°C
Humidity: 43%
Barometer: 29.95 inHg , 1014.2 hPa
Clouds: Clear
Visibility: 10 miles , 16 km
2018/08/16 19:15 KACB 161915Z AUTO 32004KT 10SM CLR 31/17 A2995 RMK AO2 T03050170
 
CWNL - Great Duck Island, Ontario, Canada
Distance from station: E 66mi, 106km
Updated: 08/16/2018 2:00pm
NOT Current

 Wind from S
Wind: S 7 mph , 11 km/h
Temperature: 73°F , 23°C
Dew Point: 66°F , 19°C
Humidity: 78%
2018/08/16 18:00 CWNL 161800Z AUTO 17006KT 23/19 RMK AO1 SLP162 T02330189 58004
KERY - Newberry, Michigan, USA
Distance from station: NW 69mi, 112km
Updated: 08/16/2018 3:15pm
Haze, Overcast
Haze, Overcast
 Wind from S
Wind: S 5 mph , 7 km/h
Temperature: 82°F , 28°C
Heat Index: 82°F , 28°C
Dew Point: 61°F , 16°C
Humidity: 48%
Barometer: 29.99 inHg , 1015.6 hPa
Summary: Haze
Clouds: Overcast
Visibility: 1 1/2 miles , 2.4 km
Cloud details: Overcast 700 ft
2018/08/16 19:15 KERY 161915Z AUTO 17004KT 1 1/2SM HZ VV007 28/16 A2999 RMK AO2 T02840160
 
KGOV - Grayling Af, Michigan, USA
Distance from station: SSW 70mi, 113km
Updated: 08/16/2018 2:58pm
Few Clouds
Few Clouds
 Wind from ESE
Wind: ESE 5 mph , 7 km/h
Temperature: 84°F , 29°C
Heat Index: 85°F , 29°C
Dew Point: 64°F , 18°C
Humidity: 51%
Barometer: 29.97 inHg , 1014.9 hPa
Clouds: Few Clouds
Visibility: 10 miles , 16 km
Cloud details: Few Clouds 7000 ft
2018/08/16 18:58 KGOV 161858Z AUTO 12004KT 10SM FEW070 29/18 A2997 RMK AO2 SLP149 T02870175 $